Aeroporto :
LOGIN :

Iscrizione | Disclaimer

   EN    FR    IT 

 










Sommario :    VFR   VFR Marginale   IFR   IFR Intensivo   IFR Molto Intensivo
Visibilità : 
Base nubi : 
>= 8 km
>= 3000ft
5 / 8 km
1000 / 3000 ft
1500m / 5 km
500 / 1000 ft
800 / 1500m
200 / 500 ft
< 800m
< 200 ft
Simboli :   Temporali  Nebbia  Neve Forte  Precipitazioni Forti  Vento > 20 kt
SIGMETs :   Varie  Temporali  Ghiacco  Turbolenza  Onda orograficha  Ceneri Vulcaniche






- Altitudine del aeroporto : 765 ft


LOAV - Vöslau

ULTIMO METAR :
  • 240800Z 30008KT 8000 -RA FEW008 SCT010 BKN030 04/04

METARs OBSOLETI :
  • 240700Z 32009KT 8000 -RA SCT010 BKN015 04/04

TAF TAF LOAV
Valido dal 24 a 09 ore il 24 a 18 ore UTC


240815Z 2409/2418 31010KT 9999 -RA BKN020
TEMPO 2409/2414 31015G25KT
TEMPO 2409/2410 RA
PROB30
TEMPO 2409/2410 BKN012
BECMG 2410/2412 NSW
TEMPO 2412/2415 -RA



MetMap, La meteo Aeronautica in un colpo d'occhio ! - Copyright ORBIFLY Dicembre 2007 - Disclaimer

ORBIFLY MET'MAP TEAM :

Programmazione e sviluppo : Alexandra Zaïnal
Concezione : Baudouin d'Aumeries
Supporto tecnico e logistico : Manuel Goepfert
Aiuto : Marc-Olivier Méhu
Aiuto per la traduzione : Arnaldo La Scala




FONTI E CREDITI :

   NOAA